sensor_id;sensor_type;location;lat;lon;timestamp;pressure;altitude;pressure_sealevel;temperature;humidity
75317;BME280;63913;51.492;10.368;2024-02-14T00:02:15;98604.34;;;5.21;82.40
75317;BME280;63913;51.492;10.368;2024-02-14T00:04:40;98591.53;;;5.19;82.48
75317;BME280;63913;51.492;10.368;2024-02-14T00:07:05;98601.72;;;5.19;83.15
75317;BME280;63913;51.492;10.368;2024-02-14T00:09:31;98598.53;;;5.23;83.21
75317;BME280;63913;51.492;10.368;2024-02-14T00:11:56;98595.78;;;5.19;83.42
75317;BME280;63913;51.492;10.368;2024-02-14T00:14:22;98592.28;;;5.17;84.22
75317;BME280;63913;51.492;10.368;2024-02-14T00:16:47;98587.28;;;5.18;84.21
75317;BME280;63913;51.492;10.368;2024-02-14T00:19:12;98585.53;;;5.17;84.44
75317;BME280;63913;51.492;10.368;2024-02-14T00:21:38;98595.13;;;5.23;84.45
75317;BME280;63913;51.492;10.368;2024-02-14T00:24:04;98596.72;;;5.21;84.37
75317;BME280;63913;51.492;10.368;2024-02-14T00:26:30;98587.53;;;5.24;84.45
75317;BME280;63913;51.492;10.368;2024-02-14T00:28:55;98589.13;;;5.22;84.54
75317;BME280;63913;51.492;10.368;2024-02-14T00:31:21;98586.50;;;5.21;84.56
75317;BME280;63913;51.492;10.368;2024-02-14T00:33:46;98581.41;;;5.21;84.58
75317;BME280;63913;51.492;10.368;2024-02-14T00:36:11;98581.50;;;5.22;84.80
75317;BME280;63913;51.492;10.368;2024-02-14T00:38:37;98579.03;;;5.24;84.28
75317;BME280;63913;51.492;10.368;2024-02-14T00:41:02;98580.63;;;5.22;84.36
75317;BME280;63913;51.492;10.368;2024-02-14T00:43:28;98577.28;;;5.23;84.59
75317;BME280;63913;51.492;10.368;2024-02-14T00:45:54;98576.41;;;5.22;84.68
75317;BME280;63913;51.492;10.368;2024-02-14T00:48:22;98572.16;;;5.23;84.40
75317;BME280;63913;51.492;10.368;2024-02-14T00:50:47;98569.56;;;5.21;84.06
75317;BME280;63913;51.492;10.368;2024-02-14T00:53:13;98566.47;;;5.28;83.15
75317;BME280;63913;51.492;10.368;2024-02-14T00:55:39;98574.41;;;5.34;82.85
75317;BME280;63913;51.492;10.368;2024-02-14T00:58:04;98577.06;;;5.37;82.75
75317;BME280;63913;51.492;10.368;2024-02-14T01:00:29;98577.88;;;5.36;83.19
75317;BME280;63913;51.492;10.368;2024-02-14T01:02:57;98578.63;;;5.34;82.55
75317;BME280;63913;51.492;10.368;2024-02-14T01:05:23;98573.38;;;5.31;82.94
75317;BME280;63913;51.492;10.368;2024-02-14T01:07:48;98575.19;;;5.33;83.09
75317;BME280;63913;51.492;10.368;2024-02-14T01:10:14;98567.56;;;5.33;82.63
75317;BME280;63913;51.492;10.368;2024-02-14T01:12:40;98570.97;;;5.34;82.79
75317;BME280;63913;51.492;10.368;2024-02-14T01:15:06;98558.28;;;5.35;82.71
75317;BME280;63913;51.492;10.368;2024-02-14T01:17:31;98559.22;;;5.37;82.43
75317;BME280;63913;51.492;10.368;2024-02-14T01:19:57;98555.13;;;5.41;81.67
75317;BME280;63913;51.492;10.368;2024-02-14T01:22:23;98561.84;;;5.39;81.87
75317;BME280;63913;51.492;10.368;2024-02-14T01:24:49;98562.78;;;5.41;81.48
75317;BME280;63913;51.492;10.368;2024-02-14T01:27:14;98556.66;;;5.37;81.71
75317;BME280;63913;51.492;10.368;2024-02-14T01:29:41;98559.38;;;5.41;81.02
75317;BME280;63913;51.492;10.368;2024-02-14T01:32:06;98558.63;;;5.43;80.63
75317;BME280;63913;51.492;10.368;2024-02-14T01:34:32;98551.00;;;5.43;80.64
75317;BME280;63913;51.492;10.368;2024-02-14T01:36:57;98552.84;;;5.47;80.64
75317;BME280;63913;51.492;10.368;2024-02-14T01:39:23;98551.16;;;5.48;80.76
75317;BME280;63913;51.492;10.368;2024-02-14T01:41:49;98539.22;;;5.47;80.40
75317;BME280;63913;51.492;10.368;2024-02-14T01:44:15;98537.47;;;5.46;80.05
75317;BME280;63913;51.492;10.368;2024-02-14T01:46:44;98539.94;;;5.44;80.20
75317;BME280;63913;51.492;10.368;2024-02-14T01:49:15;98534.25;;;5.50;80.01
75317;BME280;63913;51.492;10.368;2024-02-14T01:51:43;98531.56;;;5.47;79.96
75317;BME280;63913;51.492;10.368;2024-02-14T01:54:11;98516.13;;;5.44;80.37
75317;BME280;63913;51.492;10.368;2024-02-14T01:56:38;98521.22;;;5.44;80.42
75317;BME280;63913;51.492;10.368;2024-02-14T01:59:03;98518.75;;;5.45;80.60
75317;BME280;63913;51.492;10.368;2024-02-14T02:01:33;98511.19;;;5.47;79.97
75317;BME280;63913;51.492;10.368;2024-02-14T02:03:59;98510.22;;;5.45;80.20
75317;BME280;63913;51.492;10.368;2024-02-14T02:06:25;98495.81;;;5.45;79.83
75317;BME280;63913;51.492;10.368;2024-02-14T02:08:51;98489.16;;;5.49;79.72
75317;BME280;63913;51.492;10.368;2024-02-14T02:11:17;98489.97;;;5.48;80.43
75317;BME280;63913;51.492;10.368;2024-02-14T02:13:42;98493.66;;;5.54;79.71
75317;BME280;63913;51.492;10.368;2024-02-14T02:16:08;98492.84;;;5.55;80.09
75317;BME280;63913;51.492;10.368;2024-02-14T02:18:34;98486.63;;;5.49;80.77
75317;BME280;63913;51.492;10.368;2024-02-14T02:20:59;98485.06;;;5.52;79.77
75317;BME280;63913;51.492;10.368;2024-02-14T02:23:24;98484.19;;;5.52;80.15
75317;BME280;63913;51.492;10.368;2024-02-14T02:25:50;98489.28;;;5.52;80.43
75317;BME280;63913;51.492;10.368;2024-02-14T02:28:16;98487.75;;;5.55;80.02
75317;BME280;63913;51.492;10.368;2024-02-14T02:30:42;98470.94;;;5.60;80.02
75317;BME280;63913;51.492;10.368;2024-02-14T02:33:07;98464.84;;;5.57;79.88
75317;BME280;63913;51.492;10.368;2024-02-14T02:35:33;98482.09;;;5.62;79.50
75317;BME280;63913;51.492;10.368;2024-02-14T02:37:59;98464.31;;;5.64;79.37
75317;BME280;63913;51.492;10.368;2024-02-14T02:40:25;98469.56;;;5.68;79.04
75317;BME280;63913;51.492;10.368;2024-02-14T02:42:52;98467.09;;;5.70;79.27
75317;BME280;63913;51.492;10.368;2024-02-14T02:45:17;98457.91;;;5.73;78.71
75317;BME280;63913;51.492;10.368;2024-02-14T02:47:43;98468.84;;;5.71;79.24
75317;BME280;63913;51.492;10.368;2024-02-14T02:50:08;98472.31;;;5.73;78.78
75317;BME280;63913;51.492;10.368;2024-02-14T02:52:34;98471.63;;;5.77;78.54
75317;BME280;63913;51.492;10.368;2024-02-14T02:55:00;98464.84;;;5.78;79.17
75317;BME280;63913;51.492;10.368;2024-02-14T02:57:30;98458.00;;;5.76;78.74
75317;BME280;63913;51.492;10.368;2024-02-14T02:59:57;98468.34;;;5.80;78.97
75317;BME280;63913;51.492;10.368;2024-02-14T03:02:24;98476.88;;;5.80;78.85
75317;BME280;63913;51.492;10.368;2024-02-14T03:04:51;98475.31;;;5.84;78.48
75317;BME280;63913;51.492;10.368;2024-02-14T03:07:16;98463.41;;;5.84;79.02
75317;BME280;63913;51.492;10.368;2024-02-14T03:09:41;98469.38;;;5.85;78.71
75317;BME280;63913;51.492;10.368;2024-02-14T03:12:07;98457.56;;;5.87;79.17
75317;BME280;63913;51.492;10.368;2024-02-14T03:14:34;98462.84;;;5.90;78.80
75317;BME280;63913;51.492;10.368;2024-02-14T03:17:00;98457.16;;;5.97;78.93
75317;BME280;63913;51.492;10.368;2024-02-14T03:19:26;98448.69;;;5.98;79.01
75317;BME280;63913;51.492;10.368;2024-02-14T03:21:53;98447.69;;;5.94;79.64
75317;BME280;63913;51.492;10.368;2024-02-14T03:24:19;98446.75;;;5.92;80.00
75317;BME280;63913;51.492;10.368;2024-02-14T03:26:44;98440.81;;;5.92;80.70
75317;BME280;63913;51.492;10.368;2024-02-14T03:29:10;98453.50;;;5.90;80.82
75317;BME280;63913;51.492;10.368;2024-02-14T03:31:35;98442.53;;;5.93;80.96
75317;BME280;63913;51.492;10.368;2024-02-14T03:34:01;98437.47;;;5.94;80.78
75317;BME280;63913;51.492;10.368;2024-02-14T03:36:27;98432.31;;;5.93;81.11
75317;BME280;63913;51.492;10.368;2024-02-14T03:38:58;98431.72;;;5.98;80.33
75317;BME280;63913;51.492;10.368;2024-02-14T03:41:27;98421.56;;;6.00;80.97
75317;BME280;63913;51.492;10.368;2024-02-14T03:43:52;98419.84;;;6.00;80.34
75317;BME280;63913;51.492;10.368;2024-02-14T03:46:19;98421.56;;;6.00;80.86
75317;BME280;63913;51.492;10.368;2024-02-14T03:48:46;98424.84;;;5.97;80.91
75317;BME280;63913;51.492;10.368;2024-02-14T03:51:13;98414.94;;;6.05;80.41
75317;BME280;63913;51.492;10.368;2024-02-14T03:53:38;98407.34;;;6.06;80.75
75317;BME280;63913;51.492;10.368;2024-02-14T03:56:04;98407.56;;;6.12;79.92
75317;BME280;63913;51.492;10.368;2024-02-14T03:58:31;98416.78;;;6.09;80.75
75317;BME280;63913;51.492;10.368;2024-02-14T04:00:58;98408.97;;;6.04;80.65
75317;BME280;63913;51.492;10.368;2024-02-14T04:03:23;98401.47;;;6.09;80.39
75317;BME280;63913;51.492;10.368;2024-02-14T04:05:48;98410.00;;;6.09;80.31
75317;BME280;63913;51.492;10.368;2024-02-14T04:08:14;98406.63;;;6.10;80.44
75317;BME280;63913;51.492;10.368;2024-02-14T04:10:39;98418.81;;;6.18;80.07
75317;BME280;63913;51.492;10.368;2024-02-14T04:13:05;98421.22;;;6.13;80.69
75317;BME280;63913;51.492;10.368;2024-02-14T04:15:31;98415.22;;;6.12;80.66
75317;BME280;63913;51.492;10.368;2024-02-14T04:17:57;98430.63;;;6.14;80.87
75317;BME280;63913;51.492;10.368;2024-02-14T04:20:23;98415.38;;;6.16;81.12
75317;BME280;63913;51.492;10.368;2024-02-14T04:22:49;98420.34;;;6.12;81.08
75317;BME280;63913;51.492;10.368;2024-02-14T04:25:14;98418.72;;;6.15;80.79
75317;BME280;63913;51.492;10.368;2024-02-14T04:27:40;98408.69;;;6.19;80.57
75317;BME280;63913;51.492;10.368;2024-02-14T04:30:06;98408.59;;;6.18;80.99
75317;BME280;63913;51.492;10.368;2024-02-14T04:32:31;98401.00;;;6.19;80.81
75317;BME280;63913;51.492;10.368;2024-02-14T04:34:57;98413.69;;;6.16;81.13
75317;BME280;63913;51.492;10.368;2024-02-14T04:37:23;98406.88;;;6.17;81.17
75317;BME280;63913;51.492;10.368;2024-02-14T04:39:49;98409.41;;;6.17;81.38
75317;BME280;63913;51.492;10.368;2024-02-14T04:42:14;98408.72;;;6.21;81.61
75317;BME280;63913;51.492;10.368;2024-02-14T04:44:39;98404.44;;;6.20;81.95
75317;BME280;63913;51.492;10.368;2024-02-14T04:47:05;98407.72;;;6.17;82.22
75317;BME280;63913;51.492;10.368;2024-02-14T04:49:30;98406.19;;;6.21;81.66
75317;BME280;63913;51.492;10.368;2024-02-14T04:51:56;98390.00;;;6.20;81.87
75317;BME280;63913;51.492;10.368;2024-02-14T04:54:22;98398.59;;;6.22;81.90
75317;BME280;63913;51.492;10.368;2024-02-14T04:56:47;98394.97;;;6.17;83.45
75317;BME280;63913;51.492;10.368;2024-02-14T04:59:13;98396.63;;;6.15;85.09
75317;BME280;63913;51.492;10.368;2024-02-14T05:01:38;98405.09;;;6.14;85.68
75317;BME280;63913;51.492;10.368;2024-02-14T05:04:05;98399.03;;;6.12;87.28
75317;BME280;63913;51.492;10.368;2024-02-14T05:06:32;98387.81;;;6.07;87.61
75317;BME280;63913;51.492;10.368;2024-02-14T05:08:57;98395.28;;;6.02;87.94
75317;BME280;63913;51.492;10.368;2024-02-14T05:11:23;98386.69;;;6.00;88.12
75317;BME280;63913;51.492;10.368;2024-02-14T05:13:48;98389.13;;;5.97;89.36
75317;BME280;63913;51.492;10.368;2024-02-14T05:16:20;98397.72;;;5.99;88.22
75317;BME280;63913;51.492;10.368;2024-02-14T05:18:46;98382.56;;;6.04;87.49
75317;BME280;63913;51.492;10.368;2024-02-14T05:21:12;98383.38;;;6.03;87.13
75317;BME280;63913;51.492;10.368;2024-02-14T05:23:37;98381.84;;;6.06;86.99
75317;BME280;63913;51.492;10.368;2024-02-14T05:26:03;98397.09;;;6.05;87.61
75317;BME280;63913;51.492;10.368;2024-02-14T05:28:29;98385.28;;;6.08;87.48
75317;BME280;63913;51.492;10.368;2024-02-14T05:30:55;98382.72;;;6.08;86.66
75317;BME280;63913;51.492;10.368;2024-02-14T05:33:21;98366.53;;;6.06;86.85
75317;BME280;63913;51.492;10.368;2024-02-14T05:35:51;98376.81;;;6.09;86.97
75317;BME280;63913;51.492;10.368;2024-02-14T05:38:17;98381.94;;;6.09;87.58
75317;BME280;63913;51.492;10.368;2024-02-14T05:40:45;98383.59;;;6.09;88.32
75317;BME280;63913;51.492;10.368;2024-02-14T05:43:11;98383.59;;;6.09;89.49
75317;BME280;63913;51.492;10.368;2024-02-14T05:45:36;98398.75;;;6.04;89.62
75317;BME280;63913;51.492;10.368;2024-02-14T05:48:02;98391.03;;;6.03;88.52
75317;BME280;63913;51.492;10.368;2024-02-14T05:50:27;98397.00;;;6.03;89.59
75317;BME280;63913;51.492;10.368;2024-02-14T05:52:53;98409.78;;;6.03;89.21
75317;BME280;63913;51.492;10.368;2024-02-14T05:55:18;98404.59;;;6.02;89.52
75317;BME280;63913;51.492;10.368;2024-02-14T05:57:44;98403.94;;;6.06;90.24
75317;BME280;63913;51.492;10.368;2024-02-14T06:00:09;98398.75;;;6.04;90.03
75317;BME280;63913;51.492;10.368;2024-02-14T06:02:38;98399.69;;;6.06;89.87
75317;BME280;63913;51.492;10.368;2024-02-14T06:05:08;98395.47;;;6.07;90.64
75317;BME280;63913;51.492;10.368;2024-02-14T06:07:36;98392.03;;;6.06;90.14
75317;BME280;63913;51.492;10.368;2024-02-14T06:10:02;98383.56;;;6.07;89.56
75317;BME280;63913;51.492;10.368;2024-02-14T06:12:27;98385.28;;;6.08;89.94
75317;BME280;63913;51.492;10.368;2024-02-14T06:14:54;98392.94;;;6.08;89.96
75317;BME280;63913;51.492;10.368;2024-02-14T06:17:20;98385.41;;;6.11;90.12
75317;BME280;63913;51.492;10.368;2024-02-14T06:19:45;98380.38;;;6.13;90.97
75317;BME280;63913;51.492;10.368;2024-02-14T06:22:11;98385.53;;;6.15;90.40
75317;BME280;63913;51.492;10.368;2024-02-14T06:24:36;98403.34;;;6.13;91.18
75317;BME280;63913;51.492;10.368;2024-02-14T06:27:02;98400.56;;;6.07;91.66
75317;BME280;63913;51.492;10.368;2024-02-14T06:29:27;98398.00;;;6.07;92.00
75317;BME280;63913;51.492;10.368;2024-02-14T06:31:52;98410.06;;;6.11;91.28
75317;BME280;63913;51.492;10.368;2024-02-14T06:34:19;98408.44;;;6.13;91.59
75317;BME280;63913;51.492;10.368;2024-02-14T06:36:46;98407.72;;;6.17;91.49
75317;BME280;63913;51.492;10.368;2024-02-14T06:39:12;98405.19;;;6.17;91.79
75317;BME280;63913;51.492;10.368;2024-02-14T06:41:37;98397.53;;;6.17;91.94
75317;BME280;63913;51.492;10.368;2024-02-14T06:44:04;98400.28;;;6.22;91.87
75317;BME280;63913;51.492;10.368;2024-02-14T06:46:29;98414.66;;;6.20;92.50
75317;BME280;63913;51.492;10.368;2024-02-14T06:48:55;98423.41;;;6.26;91.96
75317;BME280;63913;51.492;10.368;2024-02-14T06:51:21;98421.91;;;6.31;91.57
75317;BME280;63913;51.492;10.368;2024-02-14T06:53:47;98423.53;;;6.29;91.94
75317;BME280;63913;51.492;10.368;2024-02-14T06:56:12;98430.53;;;6.35;91.69
75317;BME280;63913;51.492;10.368;2024-02-14T06:58:37;98429.38;;;6.27;92.75
75317;BME280;63913;51.492;10.368;2024-02-14T07:01:03;98418.19;;;6.23;92.75
75317;BME280;63913;51.492;10.368;2024-02-14T07:03:28;98423.53;;;6.29;92.06
75317;BME280;63913;51.492;10.368;2024-02-14T07:05:53;98430.44;;;6.32;92.73
75317;BME280;63913;51.492;10.368;2024-02-14T07:08:19;98433.81;;;6.31;93.04
75317;BME280;63913;51.492;10.368;2024-02-14T07:10:45;98429.59;;;6.33;92.68
75317;BME280;63913;51.492;10.368;2024-02-14T07:13:10;98426.22;;;6.32;93.39
75317;BME280;63913;51.492;10.368;2024-02-14T07:15:35;98434.78;;;6.34;93.12
75317;BME280;63913;51.492;10.368;2024-02-14T07:18:01;98434.78;;;6.34;93.78
75317;BME280;63913;51.492;10.368;2024-02-14T07:20:26;98447.53;;;6.34;93.66
75317;BME280;63913;51.492;10.368;2024-02-14T07:22:52;98443.38;;;6.36;93.47
75317;BME280;63913;51.492;10.368;2024-02-14T07:25:19;98434.91;;;6.37;93.65
75317;BME280;63913;51.492;10.368;2024-02-14T07:27:44;98435.72;;;6.36;93.81
75317;BME280;63913;51.492;10.368;2024-02-14T07:30:11;98445.13;;;6.37;93.44
75317;BME280;63913;51.492;10.368;2024-02-14T07:32:37;98437.75;;;6.45;93.28
75317;BME280;63913;51.492;10.368;2024-02-14T07:35:03;98454.75;;;6.44;93.51
75317;BME280;63913;51.492;10.368;2024-02-14T07:37:30;98442.25;;;6.52;93.13
75317;BME280;63913;51.492;10.368;2024-02-14T07:39:55;98457.53;;;6.50;93.09
75317;BME280;63913;51.492;10.368;2024-02-14T07:42:21;98441.22;;;6.47;94.31
75317;BME280;63913;51.492;10.368;2024-02-14T07:44:46;98453.06;;;6.45;94.07
75317;BME280;63913;51.492;10.368;2024-02-14T07:47:12;98448.97;;;6.50;93.73
75317;BME280;63913;51.492;10.368;2024-02-14T07:49:38;98445.69;;;6.53;93.77
75317;BME280;63913;51.492;10.368;2024-02-14T07:52:04;98449.91;;;6.52;94.46
75317;BME280;63913;51.492;10.368;2024-02-14T07:54:29;98452.47;;;6.52;94.18
75317;BME280;63913;51.492;10.368;2024-02-14T07:56:55;98446.50;;;6.51;94.29
75317;BME280;63913;51.492;10.368;2024-02-14T07:59:20;98456.06;;;6.57;94.40
75317;BME280;63913;51.492;10.368;2024-02-14T08:01:45;98447.44;;;6.54;94.54
75317;BME280;63913;51.492;10.368;2024-02-14T08:04:11;98444.94;;;6.55;94.98
75317;BME280;63913;51.492;10.368;2024-02-14T08:06:36;98444.41;;;6.64;93.97
75317;BME280;63913;51.492;10.368;2024-02-14T08:09:01;98447.97;;;6.69;94.24
75317;BME280;63913;51.492;10.368;2024-02-14T08:11:31;98449.13;;;6.77;93.50
75317;BME280;63913;51.492;10.368;2024-02-14T08:13:57;98442.47;;;6.80;93.18
75317;BME280;63913;51.492;10.368;2024-02-14T08:16:23;98439.91;;;6.80;93.92
75317;BME280;63913;51.492;10.368;2024-02-14T08:18:49;98433.38;;;6.88;93.62
75317;BME280;63913;51.492;10.368;2024-02-14T08:21:16;98435.16;;;6.91;93.97
75317;BME280;63913;51.492;10.368;2024-02-14T08:23:41;98454.84;;;6.94;93.80
75317;BME280;63913;51.492;10.368;2024-02-14T08:26:07;98443.81;;;6.95;93.64
75317;BME280;63913;51.492;10.368;2024-02-14T08:28:37;98441.66;;;7.05;93.01
75317;BME280;63913;51.492;10.368;2024-02-14T08:31:02;98450.13;;;7.04;93.45
75317;BME280;63913;51.492;10.368;2024-02-14T08:33:28;98445.03;;;7.06;92.59
75317;BME280;63913;51.492;10.368;2024-02-14T08:35:53;98447.56;;;7.04;93.71
75317;BME280;63913;51.492;10.368;2024-02-14T08:38:22;98443.34;;;7.06;94.10
75317;BME280;63913;51.492;10.368;2024-02-14T08:40:48;98437.34;;;7.04;93.63
75317;BME280;63913;51.492;10.368;2024-02-14T08:43:13;98444.22;;;7.07;93.58
75317;BME280;63913;51.492;10.368;2024-02-14T08:45:39;98440.22;;;7.13;93.54
75317;BME280;63913;51.492;10.368;2024-02-14T08:48:04;98451.16;;;7.09;93.32
75317;BME280;63913;51.492;10.368;2024-02-14T08:50:30;98451.09;;;7.08;94.15
75317;BME280;63913;51.492;10.368;2024-02-14T08:52:56;98444.28;;;7.08;93.86
75317;BME280;63913;51.492;10.368;2024-02-14T08:55:21;98445.16;;;7.09;94.44
75317;BME280;63913;51.492;10.368;2024-02-14T08:57:46;98452.06;;;7.11;94.38
75317;BME280;63913;51.492;10.368;2024-02-14T09:00:15;98458.22;;;7.16;94.82
75317;BME280;63913;51.492;10.368;2024-02-14T09:02:45;98450.66;;;7.19;94.28
75317;BME280;63913;51.492;10.368;2024-02-14T09:05:12;98460.06;;;7.20;94.54
75317;BME280;63913;51.492;10.368;2024-02-14T09:07:37;98450.75;;;7.22;94.39
75317;BME280;63913;51.492;10.368;2024-02-14T09:10:03;98460.34;;;7.28;94.91
75317;BME280;63913;51.492;10.368;2024-02-14T09:12:29;98464.66;;;7.31;95.01
75317;BME280;63913;51.492;10.368;2024-02-14T09:14:55;98450.25;;;7.33;94.91
75317;BME280;63913;51.492;10.368;2024-02-14T09:17:22;98466.88;;;7.45;94.23
75317;BME280;63913;51.492;10.368;2024-02-14T09:19:47;98467.75;;;7.46;93.92
75317;BME280;63913;51.492;10.368;2024-02-14T09:22:13;98456.81;;;7.50;94.50
75317;BME280;63913;51.492;10.368;2024-02-14T09:24:43;98467.03;;;7.50;94.20
75317;BME280;63913;51.492;10.368;2024-02-14T09:27:09;98468.72;;;7.49;95.36
75317;BME280;63913;51.492;10.368;2024-02-14T09:29:34;98468.91;;;7.55;94.51
75317;BME280;63913;51.492;10.368;2024-02-14T09:32:02;98469.09;;;7.60;94.47
75317;BME280;63913;51.492;10.368;2024-02-14T09:34:29;98461.41;;;7.60;94.77
75317;BME280;63913;51.492;10.368;2024-02-14T09:36:54;98472.56;;;7.62;94.58
75317;BME280;63913;51.492;10.368;2024-02-14T09:39:22;98479.38;;;7.61;95.02
75317;BME280;63913;51.492;10.368;2024-02-14T09:41:51;98470.97;;;7.65;94.85
75317;BME280;63913;51.492;10.368;2024-02-14T09:44:20;98473.63;;;7.69;95.08
75317;BME280;63913;51.492;10.368;2024-02-14T09:46:47;98470.34;;;7.73;94.32
75317;BME280;63913;51.492;10.368;2024-02-14T09:49:14;98477.41;;;7.80;94.77
75317;BME280;63913;51.492;10.368;2024-02-14T09:51:42;98469.94;;;7.86;94.87
75317;BME280;63913;51.492;10.368;2024-02-14T09:54:09;98473.50;;;7.91;94.73
75317;BME280;63913;51.492;10.368;2024-02-14T09:56:35;98465.88;;;7.92;94.52
75317;BME280;63913;51.492;10.368;2024-02-14T09:59:02;98476.31;;;7.98;94.38
75317;BME280;63913;51.492;10.368;2024-02-14T10:01:28;98482.34;;;8.00;94.73
75317;BME280;63913;51.492;10.368;2024-02-14T10:03:54;98467.72;;;7.96;94.67
75317;BME280;63913;51.492;10.368;2024-02-14T10:06:21;98475.63;;;8.04;95.02
75317;BME280;63913;51.492;10.368;2024-02-14T10:08:50;98484.13;;;8.03;95.05
75317;BME280;63913;51.492;10.368;2024-02-14T10:11:17;98480.97;;;8.10;95.02
75317;BME280;63913;51.492;10.368;2024-02-14T10:13:45;98483.53;;;8.10;94.38
75317;BME280;63913;51.492;10.368;2024-02-14T10:16:12;98496.34;;;8.12;94.60
75317;BME280;63913;51.492;10.368;2024-02-14T10:18:38;98488.00;;;8.17;94.46
75317;BME280;63913;51.492;10.368;2024-02-14T10:21:04;98497.28;;;8.14;94.94
75317;BME280;63913;51.492;10.368;2024-02-14T10:23:30;98496.56;;;8.18;95.04
75317;BME280;63913;51.492;10.368;2024-02-14T10:25:56;98490.69;;;8.22;94.65
75317;BME280;63913;51.492;10.368;2024-02-14T10:28:22;98500.03;;;8.20;95.34
75317;BME280;63913;51.492;10.368;2024-02-14T10:30:48;98500.13;;;8.23;95.14
75317;BME280;63913;51.492;10.368;2024-02-14T10:33:15;98496.81;;;8.25;94.69
75317;BME280;63913;51.492;10.368;2024-02-14T10:35:40;98503.56;;;8.23;95.22
75317;BME280;63913;51.492;10.368;2024-02-14T10:38:07;98507.06;;;8.25;95.31
75317;BME280;63913;51.492;10.368;2024-02-14T10:40:35;98503.63;;;8.25;95.14
75317;BME280;63913;51.492;10.368;2024-02-14T10:43:01;98499.59;;;8.31;94.73
75317;BME280;63913;51.492;10.368;2024-02-14T10:45:27;98515.13;;;8.37;95.51
75317;BME280;63913;51.492;10.368;2024-02-14T10:47:56;98500.03;;;8.47;93.75
75317;BME280;63913;51.492;10.368;2024-02-14T10:50:24;98508.72;;;8.50;93.91
75317;BME280;63913;51.492;10.368;2024-02-14T10:52:53;98514.78;;;8.54;94.45
75317;BME280;63913;51.492;10.368;2024-02-14T10:55:20;98511.28;;;8.50;94.04
75317;BME280;63913;51.492;10.368;2024-02-14T10:57:46;98512.16;;;8.51;93.59
75317;BME280;63913;51.492;10.368;2024-02-14T11:00:14;98514.56;;;8.46;94.20
75317;BME280;63913;51.492;10.368;2024-02-14T11:02:41;98517.97;;;8.47;94.46
75317;BME280;63913;51.492;10.368;2024-02-14T11:05:13;98506.78;;;8.43;95.42
75317;BME280;63913;51.492;10.368;2024-02-14T11:07:45;98511.84;;;8.41;95.42
75317;BME280;63913;51.492;10.368;2024-02-14T11:10:18;98516.06;;;8.39;96.14
75317;BME280;63913;51.492;10.368;2024-02-14T11:12:43;98520.31;;;8.39;95.73
75317;BME280;63913;51.492;10.368;2024-02-14T11:15:23;98536.50;;;8.38;95.75
75317;BME280;63913;51.492;10.368;2024-02-14T11:18:04;98531.47;;;8.41;95.67
75317;BME280;63913;51.492;10.368;2024-02-14T11:20:34;98517.75;;;8.39;96.23
75317;BME280;63913;51.492;10.368;2024-02-14T11:23:05;98521.91;;;8.35;96.46
75317;BME280;63913;51.492;10.368;2024-02-14T11:25:37;98530.19;;;8.28;96.32
75317;BME280;63913;51.492;10.368;2024-02-14T11:28:13;98533.88;;;8.36;97.01
75317;BME280;63913;51.492;10.368;2024-02-14T11:30:40;98533.56;;;8.27;97.62
75317;BME280;63913;51.492;10.368;2024-02-14T11:33:26;98534.31;;;8.23;98.28
75317;BME280;63913;51.492;10.368;2024-02-14T11:35:53;98530.81;;;8.21;99.68
75317;BME280;63913;51.492;10.368;2024-02-14T11:38:22;98536.81;;;8.22;99.88
75317;BME280;63913;51.492;10.368;2024-02-14T11:40:53;98540.03;;;8.16;100.00
75317;BME280;63913;51.492;10.368;2024-02-14T11:43:20;98542.66;;;8.18;100.00
75317;BME280;63913;51.492;10.368;2024-02-14T11:45:46;98552.03;;;8.17;100.00
75317;BME280;63913;51.492;10.368;2024-02-14T11:48:15;98542.56;;;8.15;100.00
75317;BME280;63913;51.492;10.368;2024-02-14T11:50:43;98540.72;;;8.11;100.00
75317;BME280;63913;51.492;10.368;2024-02-14T11:53:10;98544.94;;;8.09;100.00
75317;BME280;63913;51.492;10.368;2024-02-14T11:55:37;98548.50;;;8.14;100.00
75317;BME280;63913;51.492;10.368;2024-02-14T11:58:07;98549.38;;;8.14;100.00
75317;BME280;63913;51.492;10.368;2024-02-14T12:00:33;98542.44;;;8.12;100.00
75317;BME280;63913;51.492;10.368;2024-02-14T12:03:01;98542.44;;;8.12;100.00
75317;BME280;63913;51.492;10.368;2024-02-14T12:05:26;98557.78;;;8.10;100.00
75317;BME280;63913;51.492;10.368;2024-02-14T12:07:52;98549.25;;;8.11;100.00
75317;BME280;63913;51.492;10.368;2024-02-14T12:10:19;98546.84;;;8.16;100.00
75317;BME280;63913;51.492;10.368;2024-02-14T12:12:47;98546.03;;;8.17;100.00
75317;BME280;63913;51.492;10.368;2024-02-14T12:15:13;98557.16;;;8.17;100.00
75317;BME280;63913;51.492;10.368;2024-02-14T12:17:40;98545.13;;;8.15;100.00
75317;BME280;63913;51.492;10.368;2024-02-14T12:20:11;98556.22;;;8.15;100.00
75317;BME280;63913;51.492;10.368;2024-02-14T12:22:38;98555.50;;;8.19;100.00
75317;BME280;63913;51.492;10.368;2024-02-14T12:25:05;98547.25;;;8.28;100.00
75317;BME280;63913;51.492;10.368;2024-02-14T12:27:32;98554.78;;;8.23;100.00
75317;BME280;63913;51.492;10.368;2024-02-14T12:29:58;98556.53;;;8.24;100.00
75317;BME280;63913;51.492;10.368;2024-02-14T12:32:23;98556.59;;;8.26;100.00
75317;BME280;63913;51.492;10.368;2024-02-14T12:34:49;98562.94;;;8.37;100.00
75317;BME280;63913;51.492;10.368;2024-02-14T12:37:14;98555.19;;;8.35;100.00
75317;BME280;63913;51.492;10.368;2024-02-14T12:39:40;98549.03;;;8.30;100.00
75317;BME280;63913;51.492;10.368;2024-02-14T12:42:05;98549.03;;;8.30;100.00
75317;BME280;63913;51.492;10.368;2024-02-14T12:44:31;98555.06;;;8.31;100.00
75317;BME280;63913;51.492;10.368;2024-02-14T12:46:57;98553.28;;;8.30;100.00
75317;BME280;63913;51.492;10.368;2024-02-14T12:49:23;98545.81;;;8.34;100.00
75317;BME280;63913;51.492;10.368;2024-02-14T12:51:51;98554.31;;;8.33;100.00
75317;BME280;63913;51.492;10.368;2024-02-14T12:54:16;98557.91;;;8.40;100.00
75317;BME280;63913;51.492;10.368;2024-02-14T12:56:42;98556.22;;;8.40;100.00